createdAt,value
2019-04-06T00:01:55.917Z,11.60
2019-04-06T00:04:26.219Z,11.80
2019-04-06T00:06:56.501Z,11.17
2019-04-06T00:09:26.831Z,11.13
2019-04-06T00:11:57.117Z,10.77
2019-04-06T00:14:27.340Z,11.37
2019-04-06T00:16:57.548Z,11.63
2019-04-06T00:19:27.873Z,10.83
2019-04-06T00:21:58.274Z,10.53
2019-04-06T00:24:28.632Z,11.07
2019-04-06T00:26:59.038Z,10.50
2019-04-06T00:29:29.484Z,10.30
2019-04-06T00:32:04.080Z,10.03
2019-04-06T00:34:34.436Z,10.40
2019-04-06T00:37:04.785Z,9.90
2019-04-06T00:39:35.097Z,10.97
2019-04-06T00:42:05.837Z,10.07
2019-04-06T00:44:36.234Z,10.33
2019-04-06T00:47:06.598Z,9.77
2019-04-06T00:49:36.924Z,9.83
2019-04-06T00:52:07.173Z,9.67
2019-04-06T00:54:37.626Z,9.53
2019-04-06T00:57:07.917Z,9.13
2019-04-06T00:59:38.637Z,9.43
2019-04-06T01:02:10.033Z,9.50
2019-04-06T01:04:40.325Z,8.73
2019-04-06T01:07:10.880Z,9.83
2019-04-06T01:09:41.185Z,9.43
2019-04-06T01:12:11.597Z,9.97
2019-04-06T01:14:41.997Z,8.00
2019-04-06T01:17:12.305Z,8.83
2019-04-06T01:19:42.933Z,9.13
2019-04-06T01:22:13.207Z,8.93
2019-04-06T01:24:43.601Z,8.40
2019-04-06T01:27:13.977Z,8.37
2019-04-06T01:29:44.293Z,8.57
2019-04-06T01:32:14.573Z,8.90
2019-04-06T01:34:44.773Z,7.57
2019-04-06T01:37:15.090Z,8.23
2019-04-06T01:39:45.485Z,8.23
2019-04-06T01:42:16.017Z,8.30
2019-04-06T01:44:46.212Z,7.93
2019-04-06T01:47:16.430Z,8.13
2019-04-06T01:49:46.776Z,8.20
2019-04-06T01:52:17.007Z,7.50
2019-04-06T01:54:47.225Z,8.30
2019-04-06T01:57:17.433Z,7.33
2019-04-06T01:59:47.917Z,7.10
2019-04-06T02:02:19.761Z,6.93
2019-04-06T02:04:50.061Z,7.30
2019-04-06T02:07:20.386Z,7.13
2019-04-06T02:09:50.654Z,6.83
2019-04-06T02:12:21.109Z,7.10
2019-04-06T02:14:51.435Z,6.67
2019-04-06T02:17:21.949Z,6.13
2019-04-06T02:19:52.432Z,6.87
2019-04-06T02:22:22.760Z,6.87
2019-04-06T02:24:53.137Z,6.70
2019-04-06T02:27:23.357Z,6.20
2019-04-06T02:30:11.351Z,5.97
2019-04-06T02:32:43.436Z,6.30
2019-04-06T02:35:33.299Z,5.97
2019-04-06T02:38:08.025Z,5.77
2019-04-06T02:40:42.683Z,5.93
2019-04-06T02:43:17.573Z,6.20
2019-04-06T02:45:47.831Z,6.83
2019-04-06T02:48:18.201Z,6.07
2019-04-06T02:50:48.600Z,6.37
2019-04-06T02:53:18.898Z,6.27
2019-04-06T02:55:49.348Z,6.10
2019-04-06T02:58:19.649Z,6.47
2019-04-06T03:00:49.889Z,6.10
2019-04-06T03:03:20.407Z,6.23
2019-04-06T03:05:50.705Z,6.33
2019-04-06T03:08:21.151Z,6.30
2019-04-06T03:10:51.598Z,6.23
2019-04-06T03:13:21.970Z,6.00
2019-04-06T03:15:52.385Z,5.83
2019-04-06T03:18:22.609Z,5.63
2019-04-06T03:20:53.002Z,5.80
2019-04-06T03:23:24.952Z,6.33
2019-04-06T03:25:55.213Z,5.70
2019-04-06T03:28:25.522Z,6.33
2019-04-06T03:30:55.995Z,5.90
2019-04-06T03:33:26.571Z,5.87
2019-04-06T03:35:56.979Z,6.03
2019-04-06T03:38:27.246Z,6.07
2019-04-06T03:40:57.519Z,5.63
2019-04-06T03:43:27.823Z,5.93
2019-04-06T03:45:58.146Z,6.70
2019-04-06T03:48:28.649Z,5.80
2019-04-06T03:50:58.973Z,6.07
2019-04-06T03:53:29.184Z,6.30
2019-04-06T03:55:59.461Z,6.23
2019-04-06T03:58:29.861Z,5.50
2019-04-06T04:01:00.346Z,6.50
2019-04-06T04:03:30.885Z,5.60
2019-04-06T04:06:01.106Z,6.20
2019-04-06T04:08:31.377Z,6.30
2019-04-06T04:11:01.574Z,7.10
2019-04-06T04:13:31.923Z,6.53
2019-04-06T04:16:02.204Z,6.17
2019-04-06T04:18:32.655Z,6.03
2019-04-06T04:21:02.951Z,6.40
2019-04-06T04:23:33.339Z,7.57
2019-04-06T04:26:03.705Z,6.10
2019-04-06T04:28:34.056Z,6.60
2019-04-06T04:31:04.550Z,6.70
2019-04-06T04:33:34.830Z,6.97
2019-04-06T04:36:05.152Z,7.60
2019-04-06T04:38:35.562Z,7.33
2019-04-06T04:41:05.918Z,6.93
2019-04-06T04:43:36.222Z,7.63
2019-04-06T04:46:06.686Z,7.30
2019-04-06T04:48:37.129Z,7.43
2019-04-06T04:51:07.524Z,8.10
2019-04-06T04:53:37.993Z,7.70
2019-04-06T04:56:08.321Z,7.77
2019-04-06T04:58:38.919Z,7.37
2019-04-06T05:01:09.497Z,8.23
2019-04-06T05:03:40.096Z,8.50
2019-04-06T05:06:10.478Z,8.07
2019-04-06T05:08:40.764Z,7.40
2019-04-06T05:11:11.184Z,7.63
2019-04-06T05:13:41.569Z,7.77
2019-04-06T05:16:12.898Z,8.97
2019-04-06T05:18:43.668Z,8.30
2019-04-06T05:21:14.308Z,8.13
2019-04-06T05:23:44.515Z,7.93
2019-04-06T05:26:14.912Z,7.90
2019-04-06T05:28:45.189Z,8.57
2019-04-06T05:31:15.480Z,8.30
2019-04-06T05:33:46.002Z,8.53
2019-04-06T05:36:16.378Z,8.50
2019-04-06T05:38:46.864Z,8.27
2019-04-06T05:41:17.161Z,9.03
2019-04-06T05:43:47.520Z,8.70
2019-04-06T05:46:17.898Z,8.83
2019-04-06T05:48:48.128Z,8.53
2019-04-06T05:51:18.521Z,9.20
2019-04-06T05:53:48.792Z,8.47
2019-04-06T05:56:19.220Z,9.07
2019-04-06T05:58:49.731Z,9.43
2019-04-06T06:01:20.393Z,9.27
2019-04-06T06:03:50.617Z,9.17
2019-04-06T06:06:20.898Z,9.03
2019-04-06T06:08:51.288Z,8.93
2019-04-06T06:11:21.570Z,9.57
2019-04-06T06:13:52.268Z,10.13
2019-04-06T06:16:22.560Z,8.93
2019-04-06T06:18:53.350Z,9.63
2019-04-06T06:21:23.761Z,9.97
2019-04-06T06:23:54.044Z,9.17
2019-04-06T06:26:24.557Z,9.20
2019-04-06T06:28:54.868Z,9.20
2019-04-06T06:31:25.142Z,9.50
2019-04-06T06:33:55.495Z,10.13
2019-04-06T06:36:25.965Z,9.87
2019-04-06T06:38:56.177Z,10.13
2019-04-06T06:41:26.449Z,9.57
2019-04-06T06:43:56.668Z,10.27
2019-04-06T06:46:26.953Z,9.27
2019-04-06T06:48:57.444Z,10.03
2019-04-06T06:51:27.985Z,10.40
2019-04-06T06:53:58.366Z,10.27
2019-04-06T06:56:28.769Z,9.30
2019-04-06T06:58:59.394Z,9.63
2019-04-06T07:01:30.017Z,10.70
2019-04-06T07:04:00.578Z,10.50
2019-04-06T07:06:31.145Z,10.13
2019-04-06T07:09:01.629Z,9.63
2019-04-06T07:11:32.009Z,10.37
2019-04-06T07:14:02.448Z,11.27
2019-04-06T07:16:33.481Z,10.10
2019-04-06T07:19:04.220Z,10.10
2019-04-06T07:21:34.709Z,9.87
2019-04-06T07:24:05.432Z,9.97
2019-04-06T07:26:35.777Z,10.13
2019-04-06T07:29:06.355Z,10.67
2019-04-06T07:31:36.964Z,10.50
2019-04-06T07:34:07.398Z,10.00
2019-04-06T07:36:38.249Z,10.37
2019-04-06T07:39:08.617Z,10.57
2019-04-06T07:41:39.122Z,10.10
2019-04-06T07:44:09.589Z,10.53
2019-04-06T07:46:40.161Z,10.33
2019-04-06T07:49:10.793Z,11.00
2019-04-06T07:51:41.192Z,9.83
2019-04-06T07:54:11.616Z,10.63
2019-04-06T07:56:42.306Z,10.23
2019-04-06T07:59:12.829Z,9.97
2019-04-06T08:01:43.308Z,10.40
2019-04-06T08:04:13.624Z,9.73
2019-04-06T08:06:43.873Z,9.40
2019-04-06T08:09:14.470Z,9.67
2019-04-06T08:11:44.908Z,9.87
2019-04-06T08:14:15.133Z,9.63
2019-04-06T08:16:45.532Z,9.43
2019-04-06T08:19:16.017Z,10.20
2019-04-06T08:21:46.631Z,9.63
2019-04-06T08:24:17.025Z,9.27
2019-04-06T08:26:47.529Z,8.80
2019-04-06T08:29:18.004Z,9.27
2019-04-06T08:31:48.407Z,9.13
2019-04-06T08:34:19.059Z,9.60
2019-04-06T08:36:49.410Z,9.47
2019-04-06T08:39:20.103Z,9.60
2019-04-06T08:41:50.385Z,8.80
2019-04-06T08:44:20.890Z,9.10
2019-04-06T08:46:51.264Z,9.03
2019-04-06T08:49:21.557Z,9.43
2019-04-06T08:51:52.141Z,9.10
2019-04-06T08:54:22.426Z,9.80
2019-04-06T08:56:53.050Z,9.17
2019-04-06T08:59:23.604Z,9.20
2019-04-06T09:01:53.960Z,9.00
2019-04-06T09:04:24.479Z,8.93
2019-04-06T09:06:54.766Z,9.23
2019-04-06T09:09:25.340Z,10.83
2019-04-06T09:11:55.882Z,9.37
2019-04-06T09:14:26.643Z,9.70
2019-04-06T09:16:57.157Z,8.83
2019-04-06T09:19:27.637Z,9.70
2019-04-06T09:21:58.172Z,9.57
2019-04-06T09:24:28.677Z,9.50
2019-04-06T09:26:58.975Z,31.23
2019-04-06T09:29:29.613Z,18.10
2019-04-06T09:32:00.216Z,17.40
2019-04-06T09:34:31.327Z,11.50
2019-04-06T09:37:02.179Z,13.80
2019-04-06T09:39:32.776Z,18.53
2019-04-06T09:42:03.291Z,27.20
2019-04-06T09:44:47.329Z,31.97
2019-04-06T09:47:25.322Z,28.50
2019-04-06T09:50:13.651Z,13.23
2019-04-06T09:52:54.897Z,10.97
2019-04-06T09:55:33.210Z,10.13
2019-04-06T09:58:05.377Z,10.37
2019-04-06T10:00:37.487Z,17.07
2019-04-06T10:03:21.604Z,10.50
2019-04-06T10:05:53.942Z,9.63
2019-04-06T10:08:38.488Z,11.30
2019-04-06T10:11:10.645Z,9.43
2019-04-06T10:13:59.682Z,10.00
2019-04-06T10:16:37.569Z,12.90
2019-04-06T10:19:22.208Z,11.90
2019-04-06T10:22:00.269Z,13.43
2019-04-06T10:24:41.084Z,12.03
2019-04-06T10:27:19.685Z,10.40
2019-04-06T10:30:00.748Z,9.43
2019-04-06T10:32:32.807Z,12.63
2019-04-06T10:35:21.849Z,12.77
2019-04-06T10:38:10.065Z,14.00
2019-04-06T10:40:58.289Z,12.10
2019-04-06T10:43:36.104Z,15.97
2019-04-06T10:46:08.143Z,18.73
2019-04-06T10:48:40.404Z,12.03
2019-04-06T10:51:28.753Z,13.67
2019-04-06T10:54:09.569Z,14.23
2019-04-06T10:56:50.676Z,11.80
2019-04-06T10:59:31.821Z,13.57
2019-04-06T11:02:09.881Z,10.73
2019-04-06T11:04:42.128Z,12.40
2019-04-06T11:07:29.739Z,13.90
2019-04-06T11:10:07.987Z,10.73
2019-04-06T11:12:42.941Z,11.33
2019-04-06T11:15:15.147Z,9.87
2019-04-06T11:17:56.332Z,9.93
2019-04-06T11:20:44.882Z,13.30
2019-04-06T11:23:17.197Z,10.17
2019-04-06T11:26:01.455Z,9.73
2019-04-06T11:28:39.450Z,9.80
2019-04-06T11:31:14.512Z,9.60
2019-04-06T11:34:03.361Z,10.17
2019-04-06T11:36:51.432Z,10.27
2019-04-06T11:39:41.894Z,9.80
2019-04-06T11:42:25.929Z,10.07
2019-04-06T11:45:03.945Z,9.70
2019-04-06T11:47:41.845Z,9.60
2019-04-06T11:50:14.166Z,9.73
2019-04-06T11:53:01.301Z,10.23
2019-04-06T11:55:36.413Z,9.70
2019-04-06T11:58:14.404Z,9.73
2019-04-06T12:01:02.992Z,10.13
2019-04-06T12:03:35.151Z,9.63
2019-04-06T12:06:12.921Z,9.90
2019-04-06T12:09:01.559Z,10.43
2019-04-06T12:11:45.508Z,10.10
2019-04-06T12:14:20.436Z,10.13
2019-04-06T12:16:55.529Z,9.80
2019-04-06T12:19:44.018Z,9.27
2019-04-06T12:22:28.441Z,10.73
2019-04-06T12:25:19.150Z,10.33
2019-04-06T12:27:51.874Z,10.40
2019-04-06T12:30:38.211Z,8.40
2019-04-06T12:33:07.244Z,9.03
2019-04-06T12:35:55.789Z,18.10
2019-04-06T12:38:34.449Z,9.73
2019-04-06T12:41:06.917Z,10.13
2019-04-06T12:43:55.349Z,9.60
2019-04-06T12:46:27.532Z,12.90
2019-04-06T12:49:14.893Z,13.20
2019-04-06T12:52:03.839Z,9.90
2019-04-06T12:54:45.380Z,10.10
2019-04-06T12:57:17.779Z,10.20
2019-04-06T12:59:50.055Z,11.97
2019-04-06T13:02:28.347Z,10.00
2019-04-06T13:05:00.628Z,10.70
2019-04-06T13:07:32.866Z,21.23
2019-04-06T13:10:10.065Z,28.10
2019-04-06T13:12:51.443Z,19.27
2019-04-06T13:15:23.821Z,12.23
2019-04-06T13:17:56.020Z,12.43
2019-04-06T13:20:28.265Z,13.53
2019-04-06T13:23:12.765Z,11.30
2019-04-06T13:25:51.021Z,10.90
2019-04-06T13:28:23.149Z,9.93
2019-04-06T13:31:04.012Z,11.43
2019-04-06T13:33:35.350Z,11.30
2019-04-06T13:36:16.182Z,10.87
2019-04-06T13:39:00.472Z,11.07
2019-04-06T13:41:41.690Z,11.63
2019-04-06T13:44:31.820Z,11.90
2019-04-06T13:47:06.285Z,10.40
2019-04-06T13:49:44.673Z,10.40
2019-04-06T13:52:23.188Z,11.23
2019-04-06T13:55:12.099Z,12.27
2019-04-06T13:57:59.276Z,13.33
2019-04-06T14:00:47.770Z,11.97
2019-04-06T14:03:29.306Z,11.40
2019-04-06T14:06:18.164Z,11.13
2019-04-06T14:09:06.705Z,11.33
2019-04-06T14:11:41.502Z,11.40
2019-04-06T14:14:19.453Z,15.37
2019-04-06T14:16:51.597Z,12.53
2019-04-06T14:19:35.566Z,12.60
2019-04-06T14:22:07.843Z,11.87
2019-04-06T14:24:46.157Z,21.07
2019-04-06T14:27:27.978Z,14.75
2019-04-06T14:30:15.629Z,13.80
2019-04-06T14:32:48.076Z,12.57
2019-04-06T14:35:26.296Z,11.50
2019-04-06T14:37:58.474Z,12.40
2019-04-06T14:40:45.561Z,11.53
2019-04-06T14:43:33.922Z,12.67
2019-04-06T14:46:18.542Z,10.73
2019-04-06T14:48:51.147Z,11.83
2019-04-06T14:51:39.159Z,11.57
2019-04-06T14:54:29.345Z,11.13
2019-04-06T14:57:02.500Z,11.27
2019-04-06T14:59:51.128Z,11.87
2019-04-06T15:02:35.452Z,10.93
2019-04-06T15:05:14.816Z,12.17
2019-04-06T15:07:59.006Z,13.77
2019-04-06T15:10:31.746Z,15.73
2019-04-06T15:13:16.371Z,13.20
2019-04-06T15:15:58.020Z,12.90
2019-04-06T15:18:41.959Z,12.30
2019-04-06T15:21:32.305Z,11.20
2019-04-06T15:24:10.499Z,9.93
2019-04-06T15:26:43.107Z,10.90
2019-04-06T15:29:18.184Z,12.10
2019-04-06T15:31:51.753Z,10.90
2019-04-06T15:34:24.277Z,15.50
2019-04-06T15:36:56.758Z,16.13
2019-04-06T15:39:31.684Z,13.83
2019-04-06T15:42:16.309Z,12.43
2019-04-06T15:44:51.561Z,14.80
2019-04-06T15:47:23.771Z,11.83
2019-04-06T15:49:56.514Z,13.97
2019-04-06T15:52:43.721Z,13.53
2019-04-06T15:55:31.732Z,12.63
2019-04-06T15:58:15.781Z,11.87
2019-04-06T16:01:04.912Z,12.53
2019-04-06T16:03:48.932Z,11.83
2019-04-06T16:06:21.100Z,12.90
2019-04-06T16:09:09.712Z,13.20
2019-04-06T16:11:50.588Z,12.50
2019-04-06T16:14:25.668Z,13.03
2019-04-06T16:16:58.017Z,13.87
2019-04-06T16:19:32.597Z,17.43
2019-04-06T16:22:16.425Z,27.83
2019-04-06T16:25:01.176Z,20.60
2019-04-06T16:27:33.307Z,23.43
2019-04-06T16:30:09.574Z,17.93
2019-04-06T16:32:41.704Z,16.30
2019-04-06T16:35:32.204Z,14.83
2019-04-06T16:38:07.732Z,13.87
2019-04-06T16:40:39.857Z,13.40
2019-04-06T16:43:11.966Z,10.27
2019-04-06T16:45:52.939Z,10.33
2019-04-06T16:48:39.821Z,11.23
2019-04-06T16:51:30.180Z,10.43
2019-04-06T16:54:02.221Z,10.03
2019-04-06T16:56:36.972Z,10.57
2019-04-06T16:59:12.008Z,9.30
2019-04-06T17:01:44.282Z,8.87
2019-04-06T17:04:16.725Z,9.97
2019-04-06T17:06:54.833Z,13.30
2019-04-06T17:09:29.393Z,12.57
2019-04-06T17:12:04.145Z,10.80
2019-04-06T17:14:39.349Z,10.07
2019-04-06T17:17:11.869Z,13.50
2019-04-06T17:19:56.267Z,14.13
2019-04-06T17:22:30.964Z,14.73
2019-04-06T17:25:05.782Z,13.13
2019-04-06T17:27:46.772Z,13.97
2019-04-06T17:30:31.553Z,12.10
2019-04-06T17:33:03.628Z,14.10
2019-04-06T17:35:41.432Z,11.43
2019-04-06T17:38:19.769Z,12.10
2019-04-06T17:40:51.994Z,11.33
2019-04-06T17:43:27.541Z,11.70
2019-04-06T17:46:00.034Z,11.23
2019-04-06T17:48:32.777Z,10.10
2019-04-06T17:51:05.394Z,11.00
2019-04-06T17:53:37.402Z,11.67
2019-04-06T17:56:25.019Z,11.67
2019-04-06T17:59:13.404Z,9.93
2019-04-06T18:02:02.122Z,10.10
2019-04-06T18:04:34.085Z,10.53
2019-04-06T18:07:12.292Z,10.23
2019-04-06T18:09:50.769Z,9.97
2019-04-06T18:12:35.136Z,10.00
2019-04-06T18:15:08.778Z,10.70
2019-04-06T18:17:39.341Z,10.73
2019-04-06T18:20:10.018Z,9.13
2019-04-06T18:22:40.405Z,10.50
2019-04-06T18:25:10.954Z,9.70
2019-04-06T18:27:41.173Z,9.90
2019-04-06T18:30:11.692Z,9.93
2019-04-06T18:32:59.984Z,9.77
2019-04-06T18:35:24.652Z,9.57
2019-04-06T18:37:56.888Z,8.10
2019-04-06T18:40:28.343Z,9.40
2019-04-06T18:42:58.901Z,9.13
2019-04-06T18:45:30.449Z,9.23
2019-04-06T18:48:00.964Z,8.97
2019-04-06T18:50:36.537Z,9.17
2019-04-06T18:53:03.580Z,9.83
2019-04-06T18:55:34.223Z,10.50
2019-04-06T18:58:11.683Z,9.73
2019-04-06T19:00:37.117Z,9.43
2019-04-06T19:03:14.715Z,10.00
2019-04-06T19:05:39.517Z,9.87
2019-04-06T19:08:09.725Z,8.63
2019-04-06T19:10:40.405Z,9.07
2019-04-06T19:13:10.805Z,8.97
2019-04-06T19:15:41.126Z,8.83
2019-04-06T19:18:11.491Z,8.33
2019-04-06T19:20:42.220Z,8.57
2019-04-06T19:23:13.621Z,9.00
2019-04-06T19:25:44.278Z,9.90
2019-04-06T19:28:14.636Z,8.13
2019-04-06T19:30:45.138Z,8.30
2019-04-06T19:33:23.312Z,8.87
2019-04-06T19:35:47.620Z,8.53
2019-04-06T19:38:17.888Z,8.43
2019-04-06T19:40:48.218Z,9.23
2019-04-06T19:43:18.749Z,9.53
2019-04-06T19:45:49.620Z,8.53
2019-04-06T19:48:20.302Z,8.50
2019-04-06T19:50:51.475Z,9.37
2019-04-06T19:53:22.414Z,8.90
2019-04-06T19:55:53.103Z,9.20
2019-04-06T19:58:23.656Z,9.30
2019-04-06T20:00:53.955Z,8.57
2019-04-06T20:03:34.015Z,8.43
2019-04-06T20:05:56.293Z,9.33
2019-04-06T20:08:27.131Z,9.50
2019-04-06T20:10:57.677Z,9.77
2019-04-06T20:13:28.752Z,8.43
2019-04-06T20:15:59.859Z,8.80
2019-04-06T20:18:30.344Z,8.73
2019-04-06T20:21:00.878Z,8.80
2019-04-06T20:23:31.121Z,8.43
2019-04-06T20:26:01.433Z,9.30
2019-04-06T20:28:32.081Z,8.73
2019-04-06T20:31:02.598Z,8.80
2019-04-06T20:33:32.866Z,9.53
2019-04-06T20:36:03.500Z,9.60
2019-04-06T20:38:33.862Z,12.17
2019-04-06T20:41:04.392Z,13.40
2019-04-06T20:43:35.150Z,12.10
2019-04-06T20:46:05.771Z,11.53
2019-04-06T20:48:36.815Z,12.80
2019-04-06T20:51:07.887Z,11.30
2019-04-06T20:53:38.301Z,9.97
2019-04-06T20:56:09.039Z,8.87
2019-04-06T20:58:39.448Z,9.10
2019-04-06T21:01:10.013Z,8.87
2019-04-06T21:03:40.464Z,8.63
2019-04-06T21:06:11.179Z,9.13
2019-04-06T21:08:41.494Z,10.00
2019-04-06T21:11:11.985Z,9.97
2019-04-06T21:13:42.377Z,10.33
2019-04-06T21:16:12.781Z,9.07
2019-04-06T21:18:43.360Z,10.20
2019-04-06T21:21:14.331Z,13.57
2019-04-06T21:23:45.122Z,14.40
2019-04-06T21:26:16.080Z,12.30
2019-04-06T21:28:46.627Z,10.60
2019-04-06T21:31:17.680Z,11.70
2019-04-06T21:33:48.241Z,10.37
2019-04-06T21:36:19.062Z,9.40
2019-04-06T21:38:49.669Z,9.63
2019-04-06T21:41:20.069Z,10.30
2019-04-06T21:43:51.067Z,10.73
2019-04-06T21:46:21.454Z,11.23
2019-04-06T21:48:52.251Z,10.47
2019-04-06T21:51:23.007Z,11.57
2019-04-06T21:53:53.591Z,11.07
2019-04-06T21:56:24.194Z,10.93
2019-04-06T21:58:54.957Z,9.43
2019-04-06T22:01:25.709Z,9.03
2019-04-06T22:03:56.297Z,11.80
2019-04-06T22:06:27.053Z,15.23
2019-04-06T22:08:57.739Z,11.03
2019-04-06T22:11:28.832Z,23.77
2019-04-06T22:14:00.261Z,16.17
2019-04-06T22:16:30.764Z,11.40
2019-04-06T22:19:01.324Z,9.50
2019-04-06T22:21:32.077Z,8.43
2019-04-06T22:24:03.061Z,9.43
2019-04-06T22:26:33.922Z,10.23
2019-04-06T22:29:04.802Z,9.23
2019-04-06T22:31:35.877Z,9.47
2019-04-06T22:34:06.269Z,9.20
2019-04-06T22:36:36.860Z,9.07
2019-04-06T22:39:09.125Z,9.57
2019-04-06T22:41:39.868Z,10.03
2019-04-06T22:44:11.090Z,8.47
2019-04-06T22:46:41.879Z,8.53
2019-04-06T22:49:12.581Z,8.50
2019-04-06T22:51:43.492Z,7.93
2019-04-06T22:54:15.321Z,8.23
2019-04-06T22:56:46.163Z,9.17
2019-04-06T22:59:17.747Z,9.07
2019-04-06T23:01:48.281Z,8.57
2019-04-06T23:04:20.375Z,9.10
2019-04-06T23:07:01.125Z,8.97
2019-04-06T23:09:31.420Z,9.17
2019-04-06T23:12:02.007Z,9.90
2019-04-06T23:14:32.851Z,9.33
2019-04-06T23:17:03.756Z,8.80
2019-04-06T23:19:34.125Z,9.03
2019-04-06T23:22:04.748Z,8.90
2019-04-06T23:24:34.969Z,8.67
2019-04-06T23:27:05.715Z,9.67
2019-04-06T23:29:36.494Z,11.83
2019-04-06T23:32:06.910Z,9.47
2019-04-06T23:34:37.389Z,9.53
2019-04-06T23:37:08.362Z,10.30
2019-04-06T23:39:39.020Z,9.03
2019-04-06T23:42:10.154Z,8.33
2019-04-06T23:44:40.930Z,9.27
2019-04-06T23:47:11.343Z,10.13
2019-04-06T23:49:41.858Z,9.93
2019-04-06T23:52:12.167Z,9.37
2019-04-06T23:54:42.579Z,9.33
2019-04-06T23:57:13.036Z,8.70
2019-04-06T23:59:43.397Z,9.60
